CNY weather

Canyonlands Field
Moab, Utah, United States

Public forecast

Using degrees Fahrenheit for public forecast. Weather courtesy of forecast.io.

Current aviation weather report (METAR) for Canyonlands Field

Retrieved 2019/12/07 02:53 UTC (46 minutes ago):

KCNY 070253Z AUTO 00000KT 10SM OVC048 04/03 A3031 RMK AO2 SLP275 T00390028 50001

Aviation forecast (TAF) for Canyonlands Field

Retrieved 2019-12-07 00:42 UTC (3 hours ago):

TAF KCNY 062340Z 0700/0724 29003KT P6SM FEW090 FM070200 VRB02KT P6SM BKN060 FM071000 VRB02KT P6SM SCT060 SCT100 FM071600 VRB03KT P6SM SCT070 BKN150 FM071800 VRB03KT P6SM FEW070 SCT180 FM072200 VRB03KT P6SM BKN150